RYR152Q UUEE-UUDD
Flight info
| Callsign | RYR152Q |
|---|---|
| Flight time | 0h 21m |
| Altitude | 15000 |
| Route | BESTA DCT RUGEL DCT GEKLA DCT IMZUP DCT KUPVE DCT NIDBE DCT IZVOK/K0685F140 DCT IPKED DCT ZOVGO DCT ODZAG DCT GUFUZ DCT ALBOR |
| Aircraft | B738/M-SDE2E3FGHIRWXY/LB1 |
Departure
| Time | 2026-05-06 09:20 |
|---|---|
| Airport | Sheremetyevo International Airport (UUEE) |
Arrival
| Time | 2026-05-06 09:41 |
|---|---|
| Airport | Domodedovo International Airport (UUDD) |
| Time | Latitude | Longitude | Altitude | Speed | Heading |
|---|---|---|---|---|---|
| 2026-05-06 09:20 | 55.91533 | 37.48790 | 5448 ft | 297 kts | 88° |
| 2026-05-06 09:20 | 55.91590 | 37.51997 | 6122 ft | 300 kts | 89° |
| 2026-05-06 09:20 | 55.91634 | 37.55754 | 6862 ft | 305 kts | 89° |
| 2026-05-06 09:20 | 55.91657 | 37.59570 | 7571 ft | 310 kts | 90° |
| 2026-05-06 09:21 | 55.91666 | 37.63444 | 8262 ft | 316 kts | 90° |
| 2026-05-06 09:21 | 55.91668 | 37.67390 | 8926 ft | 321 kts | 91° |
| 2026-05-06 09:21 | 55.91651 | 37.71388 | 9695 ft | 323 kts | 96° |
| 2026-05-06 09:21 | 55.91119 | 37.75275 | 10230 ft | 328 kts | 118° |
| 2026-05-06 09:22 | 55.89880 | 37.78713 | 10427 ft | 344 kts | 132° |
| 2026-05-06 09:22 | 55.88334 | 37.82216 | 10600 ft | 365 kts | 134° |
| 2026-05-06 09:22 | 55.86419 | 37.85136 | 10730 ft | 374 kts | 158° |
| 2026-05-06 09:22 | 55.83940 | 37.86580 | 10900 ft | 379 kts | 179° |
| 2026-05-06 09:23 | 55.81295 | 37.86707 | 11281 ft | 384 kts | 185° |
| 2026-05-06 09:23 | 55.78606 | 37.86687 | 11868 ft | 388 kts | 185° |
| 2026-05-06 09:23 | 55.75897 | 37.86673 | 12506 ft | 391 kts | 185° |
| 2026-05-06 09:23 | 55.73167 | 37.86683 | 13121 ft | 395 kts | 184° |
| 2026-05-06 09:24 | 55.70405 | 37.86714 | 13716 ft | 399 kts | 184° |
| 2026-05-06 09:24 | 55.67616 | 37.86757 | 14227 ft | 402 kts | 184° |
| 2026-05-06 09:24 | 55.64802 | 37.86804 | 14724 ft | 407 kts | 184° |
| 2026-05-06 09:24 | 55.61961 | 37.86867 | 14835 ft | 410 kts | 184° |
| 2026-05-06 09:25 | 55.59096 | 37.86947 | 14852 ft | 412 kts | 182° |
| 2026-05-06 09:25 | 55.56248 | 37.87568 | 14850 ft | 417 kts | 170° |
| 2026-05-06 09:25 | 55.53509 | 37.89314 | 14865 ft | 424 kts | 158° |
| 2026-05-06 09:25 | 55.50972 | 37.92055 | 14861 ft | 430 kts | 147° |
| 2026-05-06 09:26 | 55.48578 | 37.95229 | 14863 ft | 431 kts | 147° |
| 2026-05-06 09:26 | 55.46218 | 37.98386 | 14855 ft | 432 kts | 147° |
| 2026-05-06 09:26 | 55.43814 | 38.01578 | 14855 ft | 432 kts | 147° |
| 2026-05-06 09:26 | 55.41422 | 38.04723 | 14779 ft | 424 kts | 147° |
| 2026-05-06 09:27 | 55.39062 | 38.07798 | 14306 ft | 420 kts | 147° |
| 2026-05-06 09:27 | 55.36707 | 38.10843 | 13674 ft | 419 kts | 148° |
| 2026-05-06 09:27 | 55.34350 | 38.13879 | 12941 ft | 419 kts | 147° |
| 2026-05-06 09:27 | 55.32015 | 38.16882 | 12359 ft | 415 kts | 147° |
| 2026-05-06 09:28 | 55.29715 | 38.19843 | 12068 ft | 404 kts | 148° |
| 2026-05-06 09:28 | 55.27466 | 38.22734 | 11863 ft | 394 kts | 148° |
| 2026-05-06 09:28 | 55.25231 | 38.25584 | 11868 ft | 401 kts | 148° |
| 2026-05-06 09:28 | 55.22931 | 38.28382 | 11866 ft | 403 kts | 149° |
| 2026-05-06 09:29 | 55.20609 | 38.31141 | 11853 ft | 403 kts | 150° |
| 2026-05-06 09:29 | 55.18289 | 38.33889 | 11856 ft | 402 kts | 150° |
| 2026-05-06 09:29 | 55.16001 | 38.36614 | 11857 ft | 402 kts | 149° |
| 2026-05-06 09:29 | 55.13690 | 38.39374 | 11854 ft | 402 kts | 149° |
| 2026-05-06 09:30 | 55.11376 | 38.42129 | 11853 ft | 401 kts | 150° |
| 2026-05-06 09:30 | 55.08937 | 38.44374 | 11842 ft | 393 kts | 167° |
| 2026-05-06 09:30 | 55.06272 | 38.44938 | 11865 ft | 383 kts | 186° |
| 2026-05-06 09:30 | 55.03660 | 38.44165 | 11859 ft | 378 kts | 202° |
| 2026-05-06 09:31 | 55.01288 | 38.42280 | 11869 ft | 375 kts | 211° |
| 2026-05-06 09:31 | 54.99060 | 38.39935 | 11848 ft | 373 kts | 221° |
| 2026-05-06 09:31 | 54.97326 | 38.36636 | 11872 ft | 369 kts | 236° |
| 2026-05-06 09:31 | 54.95796 | 38.33044 | 11863 ft | 370 kts | 234° |
| 2026-05-06 09:32 | 54.94252 | 38.29463 | 11863 ft | 369 kts | 238° |
| 2026-05-06 09:32 | 54.93242 | 38.25397 | 11863 ft | 367 kts | 256° |
| 2026-05-06 09:32 | 54.92630 | 38.21088 | 11844 ft | 365 kts | 256° |
| 2026-05-06 09:32 | 54.92002 | 38.16927 | 11502 ft | 359 kts | 257° |
| 2026-05-06 09:33 | 54.91772 | 38.12659 | 10827 ft | 355 kts | 275° |
| 2026-05-06 09:33 | 54.92563 | 38.08575 | 9924 ft | 364 kts | 300° |
| 2026-05-06 09:33 | 54.94362 | 38.05483 | 9194 ft | 370 kts | 325° |
| 2026-05-06 09:33 | 54.96777 | 38.03928 | 8528 ft | 373 kts | 345° |
| 2026-05-06 09:34 | 54.99362 | 38.03468 | 7808 ft | 375 kts | 356° |
| 2026-05-06 09:34 | 55.01923 | 38.04213 | 7335 ft | 373 kts | 17° |
| 2026-05-06 09:34 | 55.04151 | 38.06429 | 7208 ft | 363 kts | 31° |
| 2026-05-06 09:34 | 55.06272 | 38.08645 | 7065 ft | 348 kts | 22° |
| 2026-05-06 09:35 | 55.07728 | 38.09743 | 7003 ft | 339 kts | 17° |
| 2026-05-06 09:35 | 55.09895 | 38.11112 | 6948 ft | 322 kts | 15° |
| 2026-05-06 09:35 | 55.11947 | 38.12311 | 6941 ft | 300 kts | 11° |
| 2026-05-06 09:35 | 55.13890 | 38.12662 | 6952 ft | 271 kts | 351° |
| 2026-05-06 09:36 | 55.15709 | 38.12499 | 6943 ft | 254 kts | 351° |
| 2026-05-06 09:36 | 55.17923 | 38.12375 | 6950 ft | 228 kts | 352° |
| 2026-05-06 09:36 | 55.18986 | 38.12331 | 6943 ft | 224 kts | 352° |
| 2026-05-06 09:36 | 55.20521 | 38.12279 | 6967 ft | 215 kts | 352° |
| 2026-05-06 09:37 | 55.21968 | 38.12241 | 6940 ft | 202 kts | 352° |
| 2026-05-06 09:37 | 55.23347 | 38.12205 | 6956 ft | 195 kts | 351° |
| 2026-05-06 09:37 | 55.24680 | 38.12110 | 6860 ft | 187 kts | 342° |
| 2026-05-06 09:37 | 55.25857 | 38.11132 | 5860 ft | 204 kts | 316° |
| 2026-05-06 09:38 | 55.27066 | 38.09573 | 4924 ft | 225 kts | 320° |
| 2026-05-06 09:38 | 55.28349 | 38.08040 | 4327 ft | 223 kts | 320° |
| 2026-05-06 09:38 | 55.29629 | 38.06521 | 3865 ft | 219 kts | 322° |
| 2026-05-06 09:38 | 55.30845 | 38.05082 | 3700 ft | 201 kts | 321° |
| 2026-05-06 09:39 | 55.31944 | 38.03782 | 3619 ft | 182 kts | 320° |
| 2026-05-06 09:39 | 55.33018 | 38.02514 | 3055 ft | 195 kts | 322° |
| 2026-05-06 09:39 | 55.34153 | 38.01134 | 2569 ft | 198 kts | 319° |
| 2026-05-06 09:39 | 55.35268 | 37.99631 | 2022 ft | 193 kts | 318° |
| 2026-05-06 09:40 | 55.36205 | 37.98267 | 1974 ft | 162 kts | 315° |
| 2026-05-06 09:40 | 55.37108 | 37.97057 | 1465 ft | 168 kts | 319° |
| 2026-05-06 09:40 | 55.38945 | 37.94789 | 717 ft | 148 kts | 326° |
| 2026-05-06 09:41 | 55.39755 | 37.93892 | 575 ft | 130 kts | 326° |
| 2026-05-06 09:41 | 55.40394 | 37.93102 | 559 ft | 91 kts | 325° |
| 2026-05-06 09:41 | 55.40695 | 37.92739 | 556 ft | 34 kts | 326° |
| 2026-05-06 09:41 | 55.40867 | 37.92494 | 555 ft | 30 kts | 308° |
| 2026-05-06 09:42 | 55.40930 | 37.92226 | 551 ft | 0 kts | 282° |